sensor_id;sensor_type;location;lat;lon;timestamp;P1;durP1;ratioP1;P2;durP2;ratioP2
75847;SDS011;73195;47.532;19.082;2024-02-14T00:00:01;8.30;;;2.60;;
75847;SDS011;73195;47.532;19.082;2024-02-14T00:02:32;5.30;;;2.10;;
75847;SDS011;73195;47.532;19.082;2024-02-14T00:05:01;5.87;;;2.50;;
75847;SDS011;73195;47.532;19.082;2024-02-14T00:07:30;7.00;;;2.55;;
75847;SDS011;73195;47.532;19.082;2024-02-14T00:09:57;7.03;;;2.30;;
75847;SDS011;73195;47.532;19.082;2024-02-14T00:12:24;6.90;;;2.50;;
75847;SDS011;73195;47.532;19.082;2024-02-14T00:14:51;5.28;;;2.20;;
75847;SDS011;73195;47.532;19.082;2024-02-14T00:17:18;4.50;;;2.08;;
75847;SDS011;73195;47.532;19.082;2024-02-14T00:19:45;4.57;;;2.05;;
75847;SDS011;73195;47.532;19.082;2024-02-14T00:22:14;5.32;;;2.00;;
75847;SDS011;73195;47.532;19.082;2024-02-14T00:24:41;5.97;;;2.10;;
75847;SDS011;73195;47.532;19.082;2024-02-14T00:27:09;5.78;;;1.85;;
75847;SDS011;73195;47.532;19.082;2024-02-14T00:29:37;5.07;;;2.03;;
75847;SDS011;73195;47.532;19.082;2024-02-14T00:32:05;7.18;;;2.30;;
75847;SDS011;73195;47.532;19.082;2024-02-14T00:34:41;5.45;;;2.20;;
75847;SDS011;73195;47.532;19.082;2024-02-14T00:37:10;4.68;;;2.10;;
75847;SDS011;73195;47.532;19.082;2024-02-14T00:39:38;7.03;;;3.65;;
75847;SDS011;73195;47.532;19.082;2024-02-14T00:42:06;7.28;;;2.28;;
75847;SDS011;73195;47.532;19.082;2024-02-14T00:44:33;4.30;;;1.90;;
75847;SDS011;73195;47.532;19.082;2024-02-14T00:47:00;6.40;;;2.20;;
75847;SDS011;73195;47.532;19.082;2024-02-14T00:49:27;6.50;;;2.22;;
75847;SDS011;73195;47.532;19.082;2024-02-14T00:51:54;5.32;;;2.25;;
75847;SDS011;73195;47.532;19.082;2024-02-14T00:54:22;4.82;;;2.08;;
75847;SDS011;73195;47.532;19.082;2024-02-14T00:56:50;5.32;;;2.40;;
75847;SDS011;73195;47.532;19.082;2024-02-14T00:59:17;6.15;;;2.30;;
75847;SDS011;73195;47.532;19.082;2024-02-14T01:01:44;6.25;;;2.33;;
75847;SDS011;73195;47.532;19.082;2024-02-14T01:04:12;5.35;;;2.30;;
75847;SDS011;73195;47.532;19.082;2024-02-14T01:06:39;6.43;;;2.12;;
75847;SDS011;73195;47.532;19.082;2024-02-14T01:09:06;6.80;;;2.42;;
75847;SDS011;73195;47.532;19.082;2024-02-14T01:11:34;4.72;;;2.30;;
75847;SDS011;73195;47.532;19.082;2024-02-14T01:14:05;5.87;;;2.47;;
75847;SDS011;73195;47.532;19.082;2024-02-14T01:16:32;4.87;;;2.30;;
75847;SDS011;73195;47.532;19.082;2024-02-14T01:18:59;5.65;;;2.50;;
75847;SDS011;73195;47.532;19.082;2024-02-14T01:21:26;5.75;;;2.50;;
75847;SDS011;73195;47.532;19.082;2024-02-14T01:23:53;5.18;;;2.35;;
75847;SDS011;73195;47.532;19.082;2024-02-14T01:26:20;7.40;;;2.47;;
75847;SDS011;73195;47.532;19.082;2024-02-14T01:28:47;6.55;;;2.20;;
75847;SDS011;73195;47.532;19.082;2024-02-14T01:31:16;7.18;;;2.25;;
75847;SDS011;73195;47.532;19.082;2024-02-14T01:33:43;6.62;;;2.75;;
75847;SDS011;73195;47.532;19.082;2024-02-14T01:36:11;8.73;;;3.40;;
75847;SDS011;73195;47.532;19.082;2024-02-14T01:38:38;5.37;;;2.70;;
75847;SDS011;73195;47.532;19.082;2024-02-14T01:41:05;5.32;;;2.30;;
75847;SDS011;73195;47.532;19.082;2024-02-14T01:43:33;7.53;;;2.78;;
75847;SDS011;73195;47.532;19.082;2024-02-14T01:46:03;6.20;;;2.85;;
75847;SDS011;73195;47.532;19.082;2024-02-14T01:48:36;7.20;;;2.87;;
75847;SDS011;73195;47.532;19.082;2024-02-14T01:51:05;6.95;;;2.62;;
75847;SDS011;73195;47.532;19.082;2024-02-14T01:53:34;5.53;;;2.40;;
75847;SDS011;73195;47.532;19.082;2024-02-14T01:56:01;8.43;;;2.60;;
75847;SDS011;73195;47.532;19.082;2024-02-14T01:58:30;8.60;;;2.50;;
75847;SDS011;73195;47.532;19.082;2024-02-14T02:00:57;6.25;;;2.45;;
75847;SDS011;73195;47.532;19.082;2024-02-14T02:03:25;6.10;;;2.25;;
75847;SDS011;73195;47.532;19.082;2024-02-14T02:05:53;5.72;;;2.65;;
75847;SDS011;73195;47.532;19.082;2024-02-14T02:08:20;6.78;;;2.45;;
75847;SDS011;73195;47.532;19.082;2024-02-14T02:10:48;6.45;;;2.30;;
75847;SDS011;73195;47.532;19.082;2024-02-14T02:13:35;5.85;;;2.20;;
75847;SDS011;73195;47.532;19.082;2024-02-14T02:16:25;7.72;;;2.60;;
75847;SDS011;73195;47.532;19.082;2024-02-14T02:19:12;6.95;;;2.50;;
75847;SDS011;73195;47.532;19.082;2024-02-14T02:22:08;7.30;;;2.10;;
75847;SDS011;73195;47.532;19.082;2024-02-14T02:24:45;5.30;;;2.20;;
75847;SDS011;73195;47.532;19.082;2024-02-14T02:27:13;5.55;;;2.22;;
75847;SDS011;73195;47.532;19.082;2024-02-14T02:30:01;5.75;;;1.90;;
75847;SDS011;73195;47.532;19.082;2024-02-14T02:32:32;6.32;;;2.10;;
75847;SDS011;73195;47.532;19.082;2024-02-14T02:34:59;4.60;;;1.67;;
75847;SDS011;73195;47.532;19.082;2024-02-14T02:37:30;5.87;;;2.08;;
75847;SDS011;73195;47.532;19.082;2024-02-14T02:40:12;4.65;;;2.00;;
75847;SDS011;73195;47.532;19.082;2024-02-14T02:42:59;7.12;;;2.00;;
75847;SDS011;73195;47.532;19.082;2024-02-14T02:45:47;7.55;;;2.30;;
75847;SDS011;73195;47.532;19.082;2024-02-14T02:48:34;4.18;;;1.80;;
75847;SDS011;73195;47.532;19.082;2024-02-14T02:51:02;5.70;;;2.28;;
75847;SDS011;73195;47.532;19.082;2024-02-14T02:54:09;6.70;;;1.90;;
75847;SDS011;73195;47.532;19.082;2024-02-14T02:56:58;5.12;;;2.10;;
75847;SDS011;73195;47.532;19.082;2024-02-14T02:59:27;4.15;;;2.00;;
75847;SDS011;73195;47.532;19.082;2024-02-14T03:01:55;5.78;;;1.75;;
75847;SDS011;73195;47.532;19.082;2024-02-14T03:04:43;5.03;;;1.92;;
75847;SDS011;73195;47.532;19.082;2024-02-14T03:07:30;6.22;;;1.80;;
75847;SDS011;73195;47.532;19.082;2024-02-14T03:10:18;5.03;;;2.17;;
75847;SDS011;73195;47.532;19.082;2024-02-14T03:13:08;7.37;;;2.33;;
75847;SDS011;73195;47.532;19.082;2024-02-14T03:15:57;6.05;;;2.12;;
75847;SDS011;73195;47.532;19.082;2024-02-14T03:18:24;6.07;;;2.20;;
75847;SDS011;73195;47.532;19.082;2024-02-14T03:20:51;8.80;;;2.62;;
75847;SDS011;73195;47.532;19.082;2024-02-14T03:23:19;6.05;;;1.80;;
75847;SDS011;73195;47.532;19.082;2024-02-14T03:25:48;5.53;;;2.15;;
75847;SDS011;73195;47.532;19.082;2024-02-14T03:28:18;6.18;;;2.47;;
75847;SDS011;73195;47.532;19.082;2024-02-14T03:30:45;6.50;;;2.25;;
75847;SDS011;73195;47.532;19.082;2024-02-14T03:33:13;5.22;;;2.35;;
75847;SDS011;73195;47.532;19.082;2024-02-14T03:35:40;7.35;;;2.50;;
75847;SDS011;73195;47.532;19.082;2024-02-14T03:38:07;6.43;;;2.60;;
75847;SDS011;73195;47.532;19.082;2024-02-14T03:40:35;5.47;;;2.70;;
75847;SDS011;73195;47.532;19.082;2024-02-14T03:43:03;7.22;;;3.08;;
75847;SDS011;73195;47.532;19.082;2024-02-14T03:45:32;6.85;;;3.03;;
75847;SDS011;73195;47.532;19.082;2024-02-14T03:47:59;8.77;;;3.25;;
75847;SDS011;73195;47.532;19.082;2024-02-14T03:50:26;6.53;;;2.75;;
75847;SDS011;73195;47.532;19.082;2024-02-14T03:52:53;7.68;;;3.47;;
75847;SDS011;73195;47.532;19.082;2024-02-14T03:55:21;7.15;;;2.92;;
75847;SDS011;73195;47.532;19.082;2024-02-14T03:57:49;7.97;;;3.12;;
75847;SDS011;73195;47.532;19.082;2024-02-14T04:00:16;8.57;;;3.62;;
75847;SDS011;73195;47.532;19.082;2024-02-14T04:02:46;8.02;;;3.28;;
75847;SDS011;73195;47.532;19.082;2024-02-14T04:05:14;9.27;;;3.90;;
75847;SDS011;73195;47.532;19.082;2024-02-14T04:07:41;8.40;;;3.80;;
75847;SDS011;73195;47.532;19.082;2024-02-14T04:10:10;8.20;;;3.70;;
75847;SDS011;73195;47.532;19.082;2024-02-14T04:12:39;8.40;;;3.87;;
75847;SDS011;73195;47.532;19.082;2024-02-14T04:15:06;10.15;;;4.12;;
75847;SDS011;73195;47.532;19.082;2024-02-14T04:17:47;9.45;;;3.90;;
75847;SDS011;73195;47.532;19.082;2024-02-14T04:20:14;9.20;;;3.83;;
75847;SDS011;73195;47.532;19.082;2024-02-14T04:22:41;9.02;;;4.07;;
75847;SDS011;73195;47.532;19.082;2024-02-14T04:25:09;9.38;;;3.85;;
75847;SDS011;73195;47.532;19.082;2024-02-14T04:27:36;8.15;;;3.97;;
75847;SDS011;73195;47.532;19.082;2024-02-14T04:30:04;8.02;;;3.83;;
75847;SDS011;73195;47.532;19.082;2024-02-14T04:32:53;9.02;;;3.80;;
75847;SDS011;73195;47.532;19.082;2024-02-14T04:35:21;10.73;;;3.80;;
75847;SDS011;73195;47.532;19.082;2024-02-14T04:37:48;9.85;;;3.75;;
75847;SDS011;73195;47.532;19.082;2024-02-14T04:40:15;9.90;;;3.87;;
75847;SDS011;73195;47.532;19.082;2024-02-14T04:42:43;8.63;;;4.10;;
75847;SDS011;73195;47.532;19.082;2024-02-14T04:45:10;9.38;;;4.25;;
75847;SDS011;73195;47.532;19.082;2024-02-14T04:47:51;9.88;;;3.83;;
75847;SDS011;73195;47.532;19.082;2024-02-14T04:50:20;8.38;;;4.32;;
75847;SDS011;73195;47.532;19.082;2024-02-14T04:52:47;10.32;;;4.32;;
75847;SDS011;73195;47.532;19.082;2024-02-14T04:55:14;9.75;;;4.32;;
75847;SDS011;73195;47.532;19.082;2024-02-14T04:57:41;9.27;;;4.10;;
75847;SDS011;73195;47.532;19.082;2024-02-14T05:00:09;10.25;;;4.30;;
75847;SDS011;73195;47.532;19.082;2024-02-14T05:02:37;13.43;;;4.18;;
75847;SDS011;73195;47.532;19.082;2024-02-14T05:05:05;10.23;;;4.57;;
75847;SDS011;73195;47.532;19.082;2024-02-14T05:07:41;8.93;;;4.10;;
75847;SDS011;73195;47.532;19.082;2024-02-14T05:10:08;10.43;;;4.47;;
75847;SDS011;73195;47.532;19.082;2024-02-14T05:12:35;10.50;;;4.65;;
75847;SDS011;73195;47.532;19.082;2024-02-14T05:15:03;21.67;;;9.18;;
75847;SDS011;73195;47.532;19.082;2024-02-14T05:17:31;20.85;;;9.55;;
75847;SDS011;73195;47.532;19.082;2024-02-14T05:19:58;14.32;;;7.15;;
75847;SDS011;73195;47.532;19.082;2024-02-14T05:22:25;12.63;;;5.62;;
75847;SDS011;73195;47.532;19.082;2024-02-14T05:24:54;14.30;;;5.85;;
75847;SDS011;73195;47.532;19.082;2024-02-14T05:27:21;14.55;;;5.43;;
75847;SDS011;73195;47.532;19.082;2024-02-14T05:29:48;10.55;;;5.07;;
75847;SDS011;73195;47.532;19.082;2024-02-14T05:32:15;16.42;;;7.20;;
75847;SDS011;73195;47.532;19.082;2024-02-14T05:34:43;14.70;;;5.50;;
75847;SDS011;73195;47.532;19.082;2024-02-14T05:37:10;12.88;;;4.80;;
75847;SDS011;73195;47.532;19.082;2024-02-14T05:39:37;13.88;;;5.37;;
75847;SDS011;73195;47.532;19.082;2024-02-14T05:42:06;11.10;;;4.57;;
75847;SDS011;73195;47.532;19.082;2024-02-14T05:44:34;14.05;;;5.37;;
75847;SDS011;73195;47.532;19.082;2024-02-14T05:47:01;14.65;;;5.90;;
75847;SDS011;73195;47.532;19.082;2024-02-14T05:49:28;12.20;;;5.10;;
75847;SDS011;73195;47.532;19.082;2024-02-14T05:51:55;14.23;;;5.80;;
75847;SDS011;73195;47.532;19.082;2024-02-14T05:54:23;14.82;;;6.28;;
75847;SDS011;73195;47.532;19.082;2024-02-14T05:56:51;15.82;;;6.47;;
75847;SDS011;73195;47.532;19.082;2024-02-14T05:59:19;18.62;;;7.85;;
75847;SDS011;73195;47.532;19.082;2024-02-14T06:01:46;31.25;;;13.40;;
75847;SDS011;73195;47.532;19.082;2024-02-14T06:04:14;25.05;;;9.77;;
75847;SDS011;73195;47.532;19.082;2024-02-14T06:06:41;20.75;;;9.85;;
75847;SDS011;73195;47.532;19.082;2024-02-14T06:09:08;22.73;;;10.93;;
75847;SDS011;73195;47.532;19.082;2024-02-14T06:11:37;15.50;;;7.18;;
75847;SDS011;73195;47.532;19.082;2024-02-14T06:14:04;14.35;;;6.55;;
75847;SDS011;73195;47.532;19.082;2024-02-14T06:16:33;14.85;;;6.78;;
75847;SDS011;73195;47.532;19.082;2024-02-14T06:19:00;17.12;;;7.90;;
75847;SDS011;73195;47.532;19.082;2024-02-14T06:21:29;14.90;;;6.95;;
75847;SDS011;73195;47.532;19.082;2024-02-14T06:23:58;16.30;;;7.57;;
75847;SDS011;73195;47.532;19.082;2024-02-14T06:26:25;20.65;;;7.87;;
75847;SDS011;73195;47.532;19.082;2024-02-14T06:28:52;17.12;;;7.32;;
75847;SDS011;73195;47.532;19.082;2024-02-14T06:31:20;17.98;;;6.95;;
75847;SDS011;73195;47.532;19.082;2024-02-14T06:33:48;17.37;;;7.50;;
75847;SDS011;73195;47.532;19.082;2024-02-14T06:36:15;15.45;;;6.95;;
75847;SDS011;73195;47.532;19.082;2024-02-14T06:38:43;15.77;;;6.65;;
75847;SDS011;73195;47.532;19.082;2024-02-14T06:41:11;21.55;;;8.10;;
75847;SDS011;73195;47.532;19.082;2024-02-14T06:43:38;19.12;;;7.12;;
75847;SDS011;73195;47.532;19.082;2024-02-14T06:46:05;20.77;;;7.40;;
75847;SDS011;73195;47.532;19.082;2024-02-14T06:48:35;21.87;;;6.90;;
75847;SDS011;73195;47.532;19.082;2024-02-14T06:51:05;20.00;;;6.80;;
75847;SDS011;73195;47.532;19.082;2024-02-14T06:53:33;17.37;;;6.18;;
75847;SDS011;73195;47.532;19.082;2024-02-14T06:56:01;13.65;;;6.53;;
75847;SDS011;73195;47.532;19.082;2024-02-14T06:58:28;18.08;;;6.87;;
75847;SDS011;73195;47.532;19.082;2024-02-14T07:00:55;17.92;;;6.30;;
75847;SDS011;73195;47.532;19.082;2024-02-14T07:03:24;16.12;;;6.78;;
75847;SDS011;73195;47.532;19.082;2024-02-14T07:05:51;18.62;;;6.55;;
75847;SDS011;73195;47.532;19.082;2024-02-14T07:08:20;21.70;;;7.15;;
75847;SDS011;73195;47.532;19.082;2024-02-14T07:10:47;16.33;;;7.30;;
75847;SDS011;73195;47.532;19.082;2024-02-14T07:13:14;25.92;;;7.80;;
75847;SDS011;73195;47.532;19.082;2024-02-14T07:15:41;18.42;;;7.22;;
75847;SDS011;73195;47.532;19.082;2024-02-14T07:18:09;15.10;;;6.70;;
75847;SDS011;73195;47.532;19.082;2024-02-14T07:20:36;17.55;;;6.32;;
75847;SDS011;73195;47.532;19.082;2024-02-14T07:23:03;12.57;;;5.55;;
75847;SDS011;73195;47.532;19.082;2024-02-14T07:25:32;14.43;;;5.70;;
75847;SDS011;73195;47.532;19.082;2024-02-14T07:27:59;10.55;;;5.07;;
75847;SDS011;73195;47.532;19.082;2024-02-14T07:30:26;14.57;;;5.12;;
75847;SDS011;73195;47.532;19.082;2024-02-14T07:32:54;15.70;;;5.82;;
75847;SDS011;73195;47.532;19.082;2024-02-14T07:35:21;12.73;;;4.97;;
75847;SDS011;73195;47.532;19.082;2024-02-14T07:37:49;11.15;;;5.00;;
75847;SDS011;73195;47.532;19.082;2024-02-14T07:40:16;12.13;;;4.68;;
75847;SDS011;73195;47.532;19.082;2024-02-14T07:43:01;12.48;;;5.03;;
75847;SDS011;73195;47.532;19.082;2024-02-14T07:45:28;14.90;;;5.20;;
75847;SDS011;73195;47.532;19.082;2024-02-14T07:47:55;10.52;;;5.00;;
75847;SDS011;73195;47.532;19.082;2024-02-14T07:50:22;13.20;;;6.40;;
75847;SDS011;73195;47.532;19.082;2024-02-14T07:52:50;13.43;;;6.75;;
75847;SDS011;73195;47.532;19.082;2024-02-14T07:55:17;14.50;;;6.57;;
75847;SDS011;73195;47.532;19.082;2024-02-14T07:57:44;12.43;;;6.35;;
75847;SDS011;73195;47.532;19.082;2024-02-14T08:00:13;16.75;;;6.32;;
75847;SDS011;73195;47.532;19.082;2024-02-14T08:02:48;13.80;;;6.12;;
75847;SDS011;73195;47.532;19.082;2024-02-14T08:05:15;19.75;;;5.78;;
75847;SDS011;73195;47.532;19.082;2024-02-14T08:07:42;17.92;;;5.95;;
75847;SDS011;73195;47.532;19.082;2024-02-14T08:10:11;15.90;;;5.80;;
75847;SDS011;73195;47.532;19.082;2024-02-14T08:12:38;14.20;;;5.10;;
75847;SDS011;73195;47.532;19.082;2024-02-14T08:15:05;13.38;;;5.18;;
75847;SDS011;73195;47.532;19.082;2024-02-14T08:17:35;14.85;;;5.80;;
75847;SDS011;73195;47.532;19.082;2024-02-14T08:20:02;16.00;;;5.90;;
75847;SDS011;73195;47.532;19.082;2024-02-14T08:22:31;12.68;;;5.37;;
75847;SDS011;73195;47.532;19.082;2024-02-14T08:24:59;11.57;;;4.85;;
75847;SDS011;73195;47.532;19.082;2024-02-14T08:27:26;13.77;;;5.40;;
75847;SDS011;73195;47.532;19.082;2024-02-14T08:29:53;10.90;;;4.97;;
75847;SDS011;73195;47.532;19.082;2024-02-14T08:32:21;9.75;;;4.82;;
75847;SDS011;73195;47.532;19.082;2024-02-14T08:34:50;8.60;;;4.47;;
75847;SDS011;73195;47.532;19.082;2024-02-14T08:37:17;12.32;;;4.68;;
75847;SDS011;73195;47.532;19.082;2024-02-14T08:39:45;12.20;;;3.90;;
75847;SDS011;73195;47.532;19.082;2024-02-14T08:42:12;7.53;;;3.70;;
75847;SDS011;73195;47.532;19.082;2024-02-14T08:44:39;9.23;;;3.55;;
75847;SDS011;73195;47.532;19.082;2024-02-14T08:47:07;9.05;;;3.95;;
75847;SDS011;73195;47.532;19.082;2024-02-14T08:49:34;12.35;;;3.95;;
75847;SDS011;73195;47.532;19.082;2024-02-14T08:52:03;9.75;;;3.58;;
75847;SDS011;73195;47.532;19.082;2024-02-14T08:54:32;8.38;;;2.50;;
75847;SDS011;73195;47.532;19.082;2024-02-14T08:56:59;7.47;;;2.67;;
75847;SDS011;73195;47.532;19.082;2024-02-14T08:59:26;6.03;;;2.70;;
75847;SDS011;73195;47.532;19.082;2024-02-14T09:01:53;6.70;;;2.70;;
75847;SDS011;73195;47.532;19.082;2024-02-14T09:04:20;9.57;;;2.78;;
75847;SDS011;73195;47.532;19.082;2024-02-14T09:06:48;12.02;;;3.62;;
75847;SDS011;73195;47.532;19.082;2024-02-14T09:09:16;9.75;;;3.65;;
75847;SDS011;73195;47.532;19.082;2024-02-14T09:11:44;11.32;;;4.07;;
75847;SDS011;73195;47.532;19.082;2024-02-14T09:14:12;9.13;;;4.27;;
75847;SDS011;73195;47.532;19.082;2024-02-14T09:16:40;10.60;;;4.43;;
75847;SDS011;73195;47.532;19.082;2024-02-14T09:19:07;7.97;;;3.97;;
75847;SDS011;73195;47.532;19.082;2024-02-14T09:21:37;10.00;;;4.00;;
75847;SDS011;73195;47.532;19.082;2024-02-14T09:24:05;8.98;;;3.50;;
75847;SDS011;73195;47.532;19.082;2024-02-14T09:26:33;8.37;;;3.20;;
75847;SDS011;73195;47.532;19.082;2024-02-14T09:29:00;6.05;;;2.40;;
75847;SDS011;73195;47.532;19.082;2024-02-14T09:31:27;6.30;;;2.50;;
75847;SDS011;73195;47.532;19.082;2024-02-14T09:33:54;6.07;;;2.35;;
75847;SDS011;73195;47.532;19.082;2024-02-14T09:36:23;5.50;;;2.42;;
75847;SDS011;73195;47.532;19.082;2024-02-14T09:38:51;5.77;;;2.00;;
75847;SDS011;73195;47.532;19.082;2024-02-14T09:41:21;9.32;;;2.42;;
75847;SDS011;73195;47.532;19.082;2024-02-14T09:43:51;5.20;;;2.15;;
75847;SDS011;73195;47.532;19.082;2024-02-14T09:46:18;7.40;;;2.58;;
75847;SDS011;73195;47.532;19.082;2024-02-14T09:48:45;6.05;;;2.08;;
75847;SDS011;73195;47.532;19.082;2024-02-14T09:51:13;5.67;;;2.13;;
75847;SDS011;73195;47.532;19.082;2024-02-14T09:53:40;6.22;;;2.22;;
75847;SDS011;73195;47.532;19.082;2024-02-14T09:56:09;6.47;;;2.17;;
75847;SDS011;73195;47.532;19.082;2024-02-14T09:58:38;6.43;;;2.70;;
75847;SDS011;73195;47.532;19.082;2024-02-14T10:01:08;4.95;;;2.35;;
75847;SDS011;73195;47.532;19.082;2024-02-14T10:03:35;4.83;;;2.00;;
75847;SDS011;73195;47.532;19.082;2024-02-14T10:06:02;5.05;;;2.10;;
75847;SDS011;73195;47.532;19.082;2024-02-14T10:08:30;6.43;;;1.40;;
75847;SDS011;73195;47.532;19.082;2024-02-14T10:10:57;4.03;;;1.50;;
75847;SDS011;73195;47.532;19.082;2024-02-14T10:13:26;5.93;;;1.17;;
75847;SDS011;73195;47.532;19.082;2024-02-14T10:15:55;5.07;;;1.17;;
75847;SDS011;73195;47.532;19.082;2024-02-14T10:18:23;4.22;;;1.40;;
75847;SDS011;73195;47.532;19.082;2024-02-14T10:20:52;4.68;;;1.55;;
75847;SDS011;73195;47.532;19.082;2024-02-14T10:23:20;4.68;;;1.70;;
75847;SDS011;73195;47.532;19.082;2024-02-14T10:25:48;4.28;;;1.75;;
75847;SDS011;73195;47.532;19.082;2024-02-14T10:28:15;4.90;;;1.90;;
75847;SDS011;73195;47.532;19.082;2024-02-14T10:30:45;5.05;;;1.65;;
75847;SDS011;73195;47.532;19.082;2024-02-14T10:33:12;3.90;;;1.55;;
75847;SDS011;73195;47.532;19.082;2024-02-14T10:35:42;3.65;;;1.48;;
75847;SDS011;73195;47.532;19.082;2024-02-14T10:38:10;6.85;;;1.50;;
75847;SDS011;73195;47.532;19.082;2024-02-14T10:40:38;5.53;;;1.57;;
75847;SDS011;73195;47.532;19.082;2024-02-14T10:43:05;5.95;;;1.77;;
75847;SDS011;73195;47.532;19.082;2024-02-14T10:45:34;3.72;;;1.70;;
75847;SDS011;73195;47.532;19.082;2024-02-14T10:48:02;4.43;;;1.80;;
75847;SDS011;73195;47.532;19.082;2024-02-14T10:50:31;5.62;;;2.25;;
75847;SDS011;73195;47.532;19.082;2024-02-14T10:53:03;5.07;;;2.10;;
75847;SDS011;73195;47.532;19.082;2024-02-14T10:55:33;6.18;;;2.20;;
75847;SDS011;73195;47.532;19.082;2024-02-14T10:58:01;5.40;;;2.30;;
75847;SDS011;73195;47.532;19.082;2024-02-14T11:00:28;6.80;;;2.10;;
75847;SDS011;73195;47.532;19.082;2024-02-14T11:02:58;7.50;;;2.58;;
75847;SDS011;73195;47.532;19.082;2024-02-14T11:05:26;6.00;;;2.80;;
75847;SDS011;73195;47.532;19.082;2024-02-14T11:07:53;6.68;;;2.50;;
75847;SDS011;73195;47.532;19.082;2024-02-14T11:10:22;5.95;;;2.40;;
75847;SDS011;73195;47.532;19.082;2024-02-14T11:12:49;8.18;;;2.80;;
75847;SDS011;73195;47.532;19.082;2024-02-14T11:15:18;7.53;;;2.72;;
75847;SDS011;73195;47.532;19.082;2024-02-14T11:17:46;6.37;;;2.60;;
75847;SDS011;73195;47.532;19.082;2024-02-14T11:20:15;7.93;;;2.92;;
75847;SDS011;73195;47.532;19.082;2024-02-14T11:22:56;5.78;;;2.50;;
75847;SDS011;73195;47.532;19.082;2024-02-14T11:25:29;6.82;;;2.90;;
75847;SDS011;73195;47.532;19.082;2024-02-14T11:27:57;10.38;;;4.20;;
75847;SDS011;73195;47.532;19.082;2024-02-14T11:30:31;14.67;;;3.67;;
75847;SDS011;73195;47.532;19.082;2024-02-14T11:33:16;8.73;;;2.72;;
75847;SDS011;73195;47.532;19.082;2024-02-14T11:35:45;5.72;;;2.45;;
75847;SDS011;73195;47.532;19.082;2024-02-14T11:38:13;8.95;;;2.67;;
75847;SDS011;73195;47.532;19.082;2024-02-14T11:40:42;6.10;;;2.10;;
75847;SDS011;73195;47.532;19.082;2024-02-14T11:43:10;7.67;;;2.83;;
75847;SDS011;73195;47.532;19.082;2024-02-14T11:45:38;8.15;;;2.20;;
75847;SDS011;73195;47.532;19.082;2024-02-14T11:48:07;8.32;;;2.50;;
75847;SDS011;73195;47.532;19.082;2024-02-14T11:50:36;6.15;;;2.50;;
75847;SDS011;73195;47.532;19.082;2024-02-14T11:53:03;6.32;;;2.28;;
75847;SDS011;73195;47.532;19.082;2024-02-14T11:55:31;4.87;;;1.87;;
75847;SDS011;73195;47.532;19.082;2024-02-14T11:58:01;3.67;;;1.35;;
75847;SDS011;73195;47.532;19.082;2024-02-14T12:00:28;4.75;;;1.52;;
75847;SDS011;73195;47.532;19.082;2024-02-14T12:02:56;3.50;;;1.58;;
75847;SDS011;73195;47.532;19.082;2024-02-14T12:05:23;6.97;;;1.77;;
75847;SDS011;73195;47.532;19.082;2024-02-14T12:07:51;5.23;;;1.70;;
75847;SDS011;73195;47.532;19.082;2024-02-14T12:10:19;4.22;;;1.60;;
75847;SDS011;73195;47.532;19.082;2024-02-14T12:12:47;4.37;;;1.60;;
75847;SDS011;73195;47.532;19.082;2024-02-14T12:15:17;4.40;;;1.27;;
75847;SDS011;73195;47.532;19.082;2024-02-14T12:17:45;4.07;;;1.30;;
75847;SDS011;73195;47.532;19.082;2024-02-14T12:20:14;4.20;;;1.40;;
75847;SDS011;73195;47.532;19.082;2024-02-14T12:22:41;3.78;;;1.37;;
75847;SDS011;73195;47.532;19.082;2024-02-14T12:25:09;3.17;;;1.20;;
75847;SDS011;73195;47.532;19.082;2024-02-14T12:27:37;7.32;;;1.67;;
75847;SDS011;73195;47.532;19.082;2024-02-14T12:30:05;3.83;;;1.60;;
75847;SDS011;73195;47.532;19.082;2024-02-14T12:32:37;5.10;;;1.43;;
75847;SDS011;73195;47.532;19.082;2024-02-14T12:35:06;5.25;;;1.62;;
75847;SDS011;73195;47.532;19.082;2024-02-14T12:37:33;5.40;;;1.40;;
75847;SDS011;73195;47.532;19.082;2024-02-14T12:40:00;3.37;;;1.12;;
75847;SDS011;73195;47.532;19.082;2024-02-14T12:42:28;8.68;;;1.50;;
75847;SDS011;73195;47.532;19.082;2024-02-14T12:44:55;5.47;;;1.80;;
75847;SDS011;73195;47.532;19.082;2024-02-14T12:47:23;5.93;;;1.83;;
75847;SDS011;73195;47.532;19.082;2024-02-14T12:49:53;4.18;;;1.70;;
75847;SDS011;73195;47.532;19.082;2024-02-14T12:52:21;4.15;;;1.77;;
75847;SDS011;73195;47.532;19.082;2024-02-14T12:54:48;3.58;;;1.73;;
75847;SDS011;73195;47.532;19.082;2024-02-14T12:57:15;5.47;;;1.83;;
75847;SDS011;73195;47.532;19.082;2024-02-14T12:59:42;4.87;;;2.08;;
75847;SDS011;73195;47.532;19.082;2024-02-14T13:02:11;6.50;;;2.30;;
75847;SDS011;73195;47.532;19.082;2024-02-14T13:04:38;4.78;;;2.45;;
75847;SDS011;73195;47.532;19.082;2024-02-14T13:07:07;5.95;;;2.47;;
75847;SDS011;73195;47.532;19.082;2024-02-14T13:09:34;6.27;;;2.20;;
75847;SDS011;73195;47.532;19.082;2024-02-14T13:12:02;5.87;;;2.37;;
75847;SDS011;73195;47.532;19.082;2024-02-14T13:14:31;5.10;;;2.62;;
75847;SDS011;73195;47.532;19.082;2024-02-14T13:16:58;5.55;;;2.70;;
75847;SDS011;73195;47.532;19.082;2024-02-14T13:19:25;7.05;;;2.87;;
75847;SDS011;73195;47.532;19.082;2024-02-14T13:21:52;4.87;;;2.50;;
75847;SDS011;73195;47.532;19.082;2024-02-14T13:24:21;7.03;;;2.75;;
75847;SDS011;73195;47.532;19.082;2024-02-14T13:26:48;7.28;;;2.70;;
75847;SDS011;73195;47.532;19.082;2024-02-14T13:29:16;9.88;;;2.90;;
75847;SDS011;73195;47.532;19.082;2024-02-14T13:31:44;6.72;;;3.00;;
75847;SDS011;73195;47.532;19.082;2024-02-14T13:34:11;6.17;;;3.10;;
75847;SDS011;73195;47.532;19.082;2024-02-14T13:36:40;7.40;;;3.17;;
75847;SDS011;73195;47.532;19.082;2024-02-14T13:39:07;7.75;;;3.83;;
75847;SDS011;73195;47.532;19.082;2024-02-14T13:41:35;7.05;;;2.90;;
75847;SDS011;73195;47.532;19.082;2024-02-14T13:44:04;7.32;;;3.17;;
75847;SDS011;73195;47.532;19.082;2024-02-14T13:46:31;8.50;;;4.00;;
75847;SDS011;73195;47.532;19.082;2024-02-14T13:48:58;6.80;;;3.30;;
75847;SDS011;73195;47.532;19.082;2024-02-14T13:51:25;8.43;;;3.60;;
75847;SDS011;73195;47.532;19.082;2024-02-14T13:53:53;7.03;;;3.35;;
75847;SDS011;73195;47.532;19.082;2024-02-14T13:56:21;10.25;;;3.90;;
75847;SDS011;73195;47.532;19.082;2024-02-14T13:58:49;9.77;;;3.70;;
75847;SDS011;73195;47.532;19.082;2024-02-14T14:01:16;10.20;;;3.87;;
75847;SDS011;73195;47.532;19.082;2024-02-14T14:03:44;8.68;;;3.53;;
75847;SDS011;73195;47.532;19.082;2024-02-14T14:06:13;6.85;;;3.15;;
75847;SDS011;73195;47.532;19.082;2024-02-14T14:08:40;10.82;;;3.65;;
75847;SDS011;73195;47.532;19.082;2024-02-14T14:11:08;6.73;;;3.43;;
75847;SDS011;73195;47.532;19.082;2024-02-14T14:13:35;7.97;;;3.87;;
75847;SDS011;73195;47.532;19.082;2024-02-14T14:16:03;9.27;;;3.70;;
75847;SDS011;73195;47.532;19.082;2024-02-14T14:18:31;8.20;;;3.60;;
75847;SDS011;73195;47.532;19.082;2024-02-14T14:20:59;7.87;;;4.10;;
75847;SDS011;73195;47.532;19.082;2024-02-14T14:23:26;10.87;;;4.30;;
75847;SDS011;73195;47.532;19.082;2024-02-14T14:25:53;8.13;;;3.50;;
75847;SDS011;73195;47.532;19.082;2024-02-14T14:28:21;7.20;;;3.37;;
75847;SDS011;73195;47.532;19.082;2024-02-14T14:30:50;7.18;;;3.50;;
75847;SDS011;73195;47.532;19.082;2024-02-14T14:33:20;7.60;;;3.50;;
75847;SDS011;73195;47.532;19.082;2024-02-14T14:35:47;10.20;;;3.53;;
75847;SDS011;73195;47.532;19.082;2024-02-14T14:38:17;6.85;;;3.22;;
75847;SDS011;73195;47.532;19.082;2024-02-14T14:40:44;9.52;;;3.78;;